SKUC/AUC METAR and TAF weather

Enter ICAO airport designator
Station Type Date Time Source
SKUC METAR 2021/07/15 12:00 UTC NOAA

SKUC 151200Z 27003KT 9999 -DZ BKN010 24/24 Q1015 RMK A2998


Station Type Date Time Source
SKUC Decoded METAR 2021/07/15 12:00 UTC NOAA

Arauca / Santiago Perez, Colombia (SKUC) 07-04N 070-44W 128M
Jul 15, 2021 - 08:00 AM EDT / 2021.07.15 1200 UTC
Wind: from the W (270 degrees) at 3 MPH (3 KT):0
Visibility: greater than 7 mile(s):0
Sky conditions: mostly cloudy
Weather: light drizzle
Temperature: 75 F (24 C)
Dew Point: 75 F (24 C)
Relative Humidity: 100%
Pressure (altimeter): 29.97 in. Hg (1015 hPa)
ob: SKUC 151200Z 27003KT 9999 -DZ BKN010 24/24 Q1015 RMK A2998
cycle: 12

Station Type Date Time Source
SKUC TAF UTC NOAA

Error!

Example: see airport list